createdAt,value
2018-07-28T00:00:13.546Z,0.00
2018-07-28T00:01:13.538Z,0.00
2018-07-28T00:02:13.595Z,0.00
2018-07-28T00:03:13.514Z,0.00
2018-07-28T00:04:13.499Z,0.00
2018-07-28T00:05:13.489Z,0.00
2018-07-28T00:06:13.481Z,0.00
2018-07-28T00:07:13.532Z,0.00
2018-07-28T00:08:13.457Z,0.00
2018-07-28T00:09:13.442Z,0.00
2018-07-28T00:10:13.436Z,0.00
2018-07-28T00:11:13.426Z,0.00
2018-07-28T00:12:13.481Z,0.00
2018-07-28T00:13:13.404Z,0.00
2018-07-28T00:14:13.391Z,0.00
2018-07-28T00:15:13.379Z,0.00
2018-07-28T00:16:13.369Z,0.00
2018-07-28T00:17:13.357Z,0.00
2018-07-28T00:18:13.404Z,0.00
2018-07-28T00:19:13.337Z,0.00
2018-07-28T00:20:13.326Z,0.00
2018-07-28T00:21:13.318Z,0.00
2018-07-28T00:22:13.306Z,0.00
2018-07-28T00:23:13.360Z,0.00
2018-07-28T00:24:13.280Z,0.00
2018-07-28T00:25:13.274Z,0.00
2018-07-28T00:26:13.260Z,0.00
2018-07-28T00:27:13.249Z,0.00
2018-07-28T00:28:13.301Z,0.00
2018-07-28T00:29:13.227Z,0.00
2018-07-28T00:30:13.219Z,0.00
2018-07-28T00:31:13.205Z,0.00
2018-07-28T00:32:13.190Z,0.00
2018-07-28T00:33:13.251Z,0.00
2018-07-28T00:34:13.174Z,0.00
2018-07-28T00:35:13.164Z,0.00
2018-07-28T00:36:13.154Z,0.00
2018-07-28T00:37:13.140Z,0.00
2018-07-28T00:38:13.190Z,0.00
2018-07-28T00:39:13.117Z,0.00
2018-07-28T00:40:13.113Z,0.00
2018-07-28T00:41:13.098Z,0.00
2018-07-28T00:42:13.091Z,0.00
2018-07-28T00:43:13.132Z,0.00
2018-07-28T00:44:13.064Z,0.00
2018-07-28T00:45:13.058Z,0.00
2018-07-28T00:46:13.044Z,0.00
2018-07-28T00:47:13.035Z,0.00
2018-07-28T00:48:13.087Z,0.00
2018-07-28T00:49:13.012Z,0.00
2018-07-28T00:50:13.000Z,0.00
2018-07-28T00:51:12.989Z,0.00
2018-07-28T00:52:12.977Z,0.00
2018-07-28T00:53:13.034Z,0.00
2018-07-28T00:54:12.954Z,0.00
2018-07-28T00:55:12.944Z,0.00
2018-07-28T00:56:12.934Z,0.00
2018-07-28T00:57:12.924Z,0.00
2018-07-28T00:58:12.982Z,0.00
2018-07-28T00:59:12.904Z,0.00
2018-07-28T01:00:12.891Z,0.00
2018-07-28T01:01:12.885Z,0.00
2018-07-28T01:02:12.868Z,0.00
2018-07-28T01:03:12.925Z,0.00
2018-07-28T01:04:12.852Z,0.00
2018-07-28T01:05:12.838Z,0.00
2018-07-28T01:06:12.822Z,0.00
2018-07-28T01:07:12.812Z,0.00
2018-07-28T01:08:12.868Z,0.00
2018-07-28T01:09:12.792Z,0.00
2018-07-28T01:10:12.781Z,0.00
2018-07-28T01:11:12.767Z,0.00
2018-07-28T01:12:12.757Z,0.00
2018-07-28T01:13:12.819Z,0.00
2018-07-28T01:14:12.739Z,0.00
2018-07-28T01:15:12.725Z,0.00
2018-07-28T01:16:12.720Z,0.00
2018-07-28T01:17:12.706Z,0.00
2018-07-28T01:18:12.757Z,0.00
2018-07-28T01:19:12.684Z,0.00
2018-07-28T01:20:12.675Z,0.00
2018-07-28T01:21:12.655Z,0.00
2018-07-28T01:22:12.656Z,0.00
2018-07-28T01:23:12.703Z,0.00
2018-07-28T01:24:12.633Z,0.00
2018-07-28T01:25:12.629Z,0.00
2018-07-28T01:26:12.608Z,0.00
2018-07-28T01:27:12.601Z,0.00
2018-07-28T01:28:12.656Z,0.00
2018-07-28T01:29:12.574Z,0.00
2018-07-28T01:30:12.564Z,0.00
2018-07-28T01:31:12.559Z,0.00
2018-07-28T01:32:12.541Z,0.00
2018-07-28T01:33:12.597Z,0.00
2018-07-28T01:34:12.522Z,0.00
2018-07-28T01:35:12.505Z,0.00
2018-07-28T01:36:12.504Z,0.00
2018-07-28T01:37:12.494Z,0.00
2018-07-28T01:38:12.544Z,0.00
2018-07-28T01:39:12.468Z,0.00
2018-07-28T01:40:12.456Z,0.00
2018-07-28T01:41:12.450Z,0.00
2018-07-28T01:42:12.438Z,0.00
2018-07-28T01:43:12.495Z,0.00
2018-07-28T01:44:12.416Z,0.00
2018-07-28T01:45:12.402Z,0.00
2018-07-28T01:46:12.388Z,0.00
2018-07-28T01:47:12.385Z,0.00
2018-07-28T01:48:12.438Z,0.00
2018-07-28T01:49:12.362Z,0.00
2018-07-28T01:50:12.358Z,0.00
2018-07-28T01:51:12.337Z,0.00
2018-07-28T01:52:12.323Z,0.00
2018-07-28T01:53:12.387Z,0.00
2018-07-28T01:54:12.305Z,0.00
2018-07-28T01:55:12.291Z,0.00
2018-07-28T01:56:12.288Z,0.00
2018-07-28T01:57:12.271Z,0.00
2018-07-28T01:58:12.260Z,0.00
2018-07-28T01:59:12.318Z,0.00
2018-07-28T02:00:12.297Z,0.00
2018-07-28T02:01:12.236Z,0.00
2018-07-28T02:02:12.232Z,0.00
2018-07-28T02:03:12.203Z,0.00
2018-07-28T02:04:12.252Z,0.00
2018-07-28T02:05:12.180Z,0.00
2018-07-28T02:06:12.175Z,0.00
2018-07-28T02:07:12.171Z,0.00
2018-07-28T02:08:12.152Z,0.00
2018-07-28T02:09:12.203Z,0.00
2018-07-28T02:10:12.128Z,0.00
2018-07-28T02:11:12.116Z,0.00
2018-07-28T02:12:12.109Z,0.00
2018-07-28T02:13:12.097Z,0.00
2018-07-28T02:14:12.152Z,0.00
2018-07-28T02:15:12.078Z,0.00
2018-07-28T02:16:12.069Z,0.00
2018-07-28T02:17:12.055Z,0.00
2018-07-28T02:18:12.049Z,0.00
2018-07-28T02:19:12.100Z,0.00
2018-07-28T02:20:12.022Z,0.00
2018-07-28T02:21:12.020Z,0.00
2018-07-28T02:22:12.002Z,0.00
2018-07-28T02:23:11.988Z,0.00
2018-07-28T02:24:12.043Z,0.00
2018-07-28T02:25:11.973Z,0.00
2018-07-28T02:26:11.959Z,0.00
2018-07-28T02:27:11.949Z,0.00
2018-07-28T02:28:11.942Z,0.00
2018-07-28T02:29:11.997Z,0.00
2018-07-28T02:30:11.916Z,0.00
2018-07-28T02:31:11.906Z,0.00
2018-07-28T02:32:11.940Z,0.00
2018-07-28T02:33:11.889Z,0.00
2018-07-28T02:34:11.946Z,0.00
2018-07-28T02:35:11.878Z,0.00
2018-07-28T02:36:11.856Z,0.00
2018-07-28T02:37:11.851Z,0.00
2018-07-28T02:38:11.838Z,0.00
2018-07-28T02:39:12.148Z,0.00
2018-07-28T02:40:11.807Z,0.00
2018-07-28T02:41:11.803Z,0.00
2018-07-28T02:42:11.780Z,0.00
2018-07-28T02:43:11.779Z,0.00
2018-07-28T02:44:11.834Z,0.00
2018-07-28T02:45:11.752Z,0.00
2018-07-28T02:46:11.751Z,0.00
2018-07-28T02:47:11.734Z,0.00
2018-07-28T02:48:11.731Z,0.00
2018-07-28T02:49:12.275Z,0.00
2018-07-28T02:50:11.693Z,0.00
2018-07-28T02:51:11.689Z,0.00
2018-07-28T02:52:11.687Z,0.00
2018-07-28T02:53:11.671Z,0.00
2018-07-28T02:54:11.727Z,0.00
2018-07-28T02:55:11.652Z,0.00
2018-07-28T02:56:11.656Z,0.00
2018-07-28T02:57:11.620Z,0.00
2018-07-28T02:58:11.611Z,0.00
2018-07-28T02:59:11.651Z,0.00
2018-07-28T03:00:11.597Z,0.00
2018-07-28T03:01:11.581Z,0.00
2018-07-28T03:02:11.571Z,0.00
2018-07-28T03:03:11.563Z,0.00
2018-07-28T03:04:11.619Z,0.00
2018-07-28T03:05:11.542Z,0.00
2018-07-28T03:06:11.532Z,0.00
2018-07-28T03:07:11.518Z,0.00
2018-07-28T03:08:11.510Z,0.00
2018-07-28T03:09:11.574Z,0.00
2018-07-28T03:10:11.491Z,0.00
2018-07-28T03:11:11.465Z,0.00
2018-07-28T03:12:11.457Z,0.00
2018-07-28T03:13:11.460Z,0.00
2018-07-28T03:14:11.504Z,0.00
2018-07-28T03:15:11.431Z,0.00
2018-07-28T03:16:11.443Z,0.00
2018-07-28T03:17:11.421Z,0.00
2018-07-28T03:18:11.406Z,4.00
2018-07-28T03:19:11.471Z,4.00
2018-07-28T03:20:11.380Z,0.00
2018-07-28T03:21:11.367Z,0.00
2018-07-28T03:22:11.377Z,0.00
2018-07-28T03:23:11.493Z,0.00
2018-07-28T03:24:11.386Z,4.00
2018-07-28T03:25:11.319Z,0.00
2018-07-28T03:26:11.304Z,0.00
2018-07-28T03:27:11.355Z,4.00
2018-07-28T03:28:11.298Z,4.00
2018-07-28T03:29:11.350Z,0.00
2018-07-28T03:30:11.469Z,4.00
2018-07-28T03:31:11.258Z,4.00
2018-07-28T03:32:11.354Z,4.00
2018-07-28T03:33:11.241Z,8.00
2018-07-28T03:34:11.288Z,8.00
2018-07-28T03:35:11.219Z,8.00
2018-07-28T03:36:11.205Z,8.00
2018-07-28T03:37:11.193Z,8.00
2018-07-28T03:38:11.181Z,12.00
2018-07-28T03:39:11.255Z,16.00
2018-07-28T03:40:11.748Z,12.00
2018-07-28T03:41:11.154Z,16.00
2018-07-28T03:42:11.140Z,20.00
2018-07-28T03:43:11.128Z,24.00
2018-07-28T03:44:11.118Z,24.00
2018-07-28T03:45:11.182Z,28.00
2018-07-28T03:46:11.108Z,36.00
2018-07-28T03:47:11.095Z,40.00
2018-07-28T03:48:11.072Z,44.00
2018-07-28T03:49:11.124Z,48.00
2018-07-28T03:50:11.112Z,56.00
2018-07-28T03:51:11.049Z,64.00
2018-07-28T03:52:11.055Z,68.00
2018-07-28T03:53:11.020Z,76.00
2018-07-28T03:54:11.011Z,88.00
2018-07-28T03:55:11.071Z,96.00
2018-07-28T03:56:10.995Z,104.00
2018-07-28T03:57:10.989Z,116.00
2018-07-28T03:58:10.973Z,124.00
2018-07-28T03:59:10.965Z,140.00
2018-07-28T04:00:11.008Z,152.00
2018-07-28T04:01:10.935Z,164.00
2018-07-28T04:02:10.923Z,176.00
2018-07-28T04:03:10.921Z,192.00
2018-07-28T04:04:10.965Z,212.00
2018-07-28T04:05:10.965Z,228.00
2018-07-28T04:06:10.887Z,248.00
2018-07-28T04:07:10.869Z,268.00
2018-07-28T04:08:10.864Z,288.00
2018-07-28T04:09:10.856Z,312.00
2018-07-28T04:10:10.904Z,336.00
2018-07-28T04:11:10.825Z,368.00
2018-07-28T04:12:10.825Z,392.00
2018-07-28T04:13:10.802Z,420.00
2018-07-28T04:14:10.796Z,448.00
2018-07-28T04:15:10.855Z,472.00
2018-07-28T04:16:10.773Z,504.00
2018-07-28T04:17:10.785Z,532.00
2018-07-28T04:18:10.751Z,560.00
2018-07-28T04:19:10.735Z,572.00
2018-07-28T04:20:10.796Z,592.00
2018-07-28T04:21:10.757Z,608.00
2018-07-28T04:22:10.704Z,624.00
2018-07-28T04:23:10.700Z,636.00
2018-07-28T04:24:10.683Z,652.00
2018-07-28T04:25:10.763Z,672.00
2018-07-28T04:26:10.674Z,684.00
2018-07-28T04:27:10.649Z,696.00
2018-07-28T04:28:10.648Z,712.00
2018-07-28T04:29:10.639Z,724.00
2018-07-28T04:30:10.701Z,736.00
2018-07-28T04:31:10.609Z,736.00
2018-07-28T04:32:10.602Z,708.00
2018-07-28T04:33:10.588Z,696.00
2018-07-28T04:34:10.588Z,680.00
2018-07-28T04:35:10.634Z,672.00
2018-07-28T04:36:10.552Z,672.00
2018-07-28T04:37:10.603Z,676.00
2018-07-28T04:38:10.542Z,684.00
2018-07-28T04:39:10.525Z,684.00
2018-07-28T04:40:10.577Z,696.00
2018-07-28T04:41:10.503Z,700.00
2018-07-28T04:42:10.482Z,712.00
2018-07-28T04:43:10.489Z,716.00
2018-07-28T04:44:10.478Z,720.00
2018-07-28T04:45:10.534Z,732.00
2018-07-28T04:46:10.448Z,736.00
2018-07-28T04:47:10.439Z,748.00
2018-07-28T04:48:10.428Z,744.00
2018-07-28T04:49:10.424Z,756.00
2018-07-28T04:50:10.492Z,740.00
2018-07-28T04:51:10.390Z,736.00
2018-07-28T04:52:10.385Z,752.00
2018-07-28T04:53:10.385Z,760.00
2018-07-28T04:54:10.373Z,760.00
2018-07-28T04:55:10.420Z,780.00
2018-07-28T04:56:10.357Z,772.00
2018-07-28T04:57:10.323Z,768.00
2018-07-28T04:58:10.311Z,752.00
2018-07-28T04:59:10.301Z,712.00
2018-07-28T05:00:10.390Z,672.00
2018-07-28T05:01:10.306Z,616.00
2018-07-28T05:02:10.271Z,572.00
2018-07-28T05:03:10.264Z,532.00
2018-07-28T05:04:10.250Z,508.00
2018-07-28T05:05:10.332Z,492.00
2018-07-28T05:06:10.240Z,460.00
2018-07-28T05:07:10.277Z,432.00
2018-07-28T05:08:10.209Z,416.00
2018-07-28T05:09:10.200Z,400.00
2018-07-28T05:10:10.260Z,392.00
2018-07-28T05:11:10.183Z,376.00
2018-07-28T05:12:10.191Z,368.00
2018-07-28T05:13:10.156Z,372.00
2018-07-28T05:14:10.309Z,376.00
2018-07-28T05:15:10.227Z,376.00
2018-07-28T05:16:10.125Z,376.00
2018-07-28T05:17:10.115Z,372.00
2018-07-28T05:18:10.139Z,396.00
2018-07-28T05:19:10.109Z,424.00
2018-07-28T05:20:10.154Z,472.00
2018-07-28T05:21:10.141Z,520.00
2018-07-28T05:22:10.058Z,564.00
2018-07-28T05:23:10.069Z,604.00
2018-07-28T05:24:10.063Z,644.00
2018-07-28T05:25:10.034Z,664.00
2018-07-28T05:26:10.715Z,688.00
2018-07-28T05:27:10.009Z,716.00
2018-07-28T05:28:10.004Z,756.00
2018-07-28T05:29:09.991Z,788.00
2018-07-28T05:30:09.976Z,836.00
2018-07-28T05:31:10.040Z,876.00
2018-07-28T05:32:09.976Z,908.00
2018-07-28T05:33:09.953Z,968.00
2018-07-28T05:34:09.933Z,984.00
2018-07-28T05:35:09.952Z,1012.00
2018-07-28T05:36:10.006Z,1048.00
2018-07-28T05:37:09.928Z,1132.00
2018-07-28T05:38:09.891Z,1204.00
2018-07-28T05:39:09.917Z,1272.00
2018-07-28T05:40:09.880Z,1312.00
2018-07-28T05:41:09.941Z,1360.00
2018-07-28T05:42:09.855Z,1348.00
2018-07-28T05:43:09.839Z,1280.00
2018-07-28T05:44:09.877Z,1164.00
2018-07-28T05:45:09.816Z,1040.00
2018-07-28T05:46:09.879Z,908.00
2018-07-28T05:47:09.802Z,828.00
2018-07-28T05:48:09.781Z,824.00
2018-07-28T05:49:09.773Z,864.00
2018-07-28T05:50:09.812Z,936.00
2018-07-28T05:51:09.858Z,1048.00
2018-07-28T05:52:09.738Z,1160.00
2018-07-28T05:53:09.727Z,1240.00
2018-07-28T05:54:09.733Z,1304.00
2018-07-28T05:55:09.702Z,1344.00
2018-07-28T05:56:09.765Z,1344.00
2018-07-28T05:57:09.681Z,1328.00
2018-07-28T05:58:09.671Z,1364.00
2018-07-28T05:59:09.661Z,1440.00
2018-07-28T06:00:09.644Z,1508.00
2018-07-28T06:01:09.695Z,1576.00
2018-07-28T06:02:09.653Z,1616.00
2018-07-28T06:03:09.614Z,1668.00
2018-07-28T06:04:09.608Z,1640.00
2018-07-28T06:05:09.600Z,1588.00
2018-07-28T06:06:09.668Z,1532.00
2018-07-28T06:07:09.571Z,1484.00
2018-07-28T06:08:09.585Z,1424.00
2018-07-28T06:09:09.564Z,1424.00
2018-07-28T06:10:09.560Z,1332.00
2018-07-28T06:11:09.598Z,1284.00
2018-07-28T06:12:09.516Z,1236.00
2018-07-28T06:13:09.502Z,1212.00
2018-07-28T06:14:09.520Z,1160.00
2018-07-28T06:15:09.486Z,1080.00
2018-07-28T06:16:09.550Z,980.00
2018-07-28T06:17:09.467Z,904.00
2018-07-28T06:18:09.460Z,860.00
2018-07-28T06:19:09.452Z,824.00
2018-07-28T06:20:09.434Z,852.00
2018-07-28T06:21:09.505Z,860.00
2018-07-28T06:22:09.400Z,868.00
2018-07-28T06:23:09.386Z,884.00
2018-07-28T06:24:09.386Z,912.00
2018-07-28T06:25:09.371Z,976.00
2018-07-28T06:26:09.438Z,1008.00
2018-07-28T06:27:09.368Z,1108.00
2018-07-28T06:28:09.350Z,1216.00
2018-07-28T06:29:09.341Z,1284.00
2018-07-28T06:30:09.312Z,1352.00
2018-07-28T06:31:09.369Z,1424.00
2018-07-28T06:32:09.292Z,1520.00
2018-07-28T06:33:09.288Z,1644.00
2018-07-28T06:34:09.277Z,1720.00
2018-07-28T06:35:09.267Z,1732.00
2018-07-28T06:36:09.324Z,1712.00
2018-07-28T06:37:09.242Z,1700.00
2018-07-28T06:38:09.232Z,1620.00
2018-07-28T06:39:09.228Z,1560.00
2018-07-28T06:40:09.207Z,1540.00
2018-07-28T06:41:09.264Z,1516.00
2018-07-28T06:42:09.186Z,1580.00
2018-07-28T06:43:09.180Z,1696.00
2018-07-28T06:44:09.170Z,1764.00
2018-07-28T06:45:09.152Z,1844.00
2018-07-28T06:46:09.208Z,1956.00
2018-07-28T06:47:09.251Z,2056.00
2018-07-28T06:48:09.117Z,2172.00
2018-07-28T06:49:09.103Z,2292.00
2018-07-28T06:50:09.097Z,2368.00
2018-07-28T06:51:09.149Z,2348.00
2018-07-28T06:52:09.081Z,2256.00
2018-07-28T06:53:09.069Z,2112.00
2018-07-28T06:54:09.057Z,1956.00
2018-07-28T06:55:09.049Z,1784.00
2018-07-28T06:56:09.112Z,1624.00
2018-07-28T06:57:09.024Z,1508.00
2018-07-28T06:58:09.022Z,1420.00
2018-07-28T06:59:09.001Z,1400.00
2018-07-28T07:00:08.993Z,1384.00
2018-07-28T07:01:09.043Z,1444.00
2018-07-28T07:02:08.975Z,1564.00
2018-07-28T07:03:08.957Z,1688.00
2018-07-28T07:04:08.944Z,1820.00
2018-07-28T07:05:08.934Z,1960.00
2018-07-28T07:06:08.942Z,2128.00
2018-07-28T07:07:08.979Z,2248.00
2018-07-28T07:08:08.902Z,2284.00
2018-07-28T07:09:08.888Z,2324.00
2018-07-28T07:10:08.884Z,2348.00
2018-07-28T07:11:08.862Z,2344.00
2018-07-28T07:12:08.921Z,2316.00
2018-07-28T07:13:08.853Z,2368.00
2018-07-28T07:14:08.832Z,2384.00
2018-07-28T07:15:08.822Z,2404.00
2018-07-28T07:16:08.816Z,2468.00
2018-07-28T07:17:08.870Z,2496.00
2018-07-28T07:18:08.792Z,2484.00
2018-07-28T07:19:08.783Z,2476.00
2018-07-28T07:20:08.768Z,2460.00
2018-07-28T07:21:08.761Z,2468.00
2018-07-28T07:22:08.818Z,2448.00
2018-07-28T07:23:08.735Z,2420.00
2018-07-28T07:24:08.731Z,2416.00
2018-07-28T07:25:08.718Z,2392.00
2018-07-28T07:26:08.712Z,2372.00
2018-07-28T07:27:08.762Z,2344.00
2018-07-28T07:28:08.695Z,2324.00
2018-07-28T07:29:08.670Z,2332.00
2018-07-28T07:30:08.664Z,2168.00
2018-07-28T07:31:08.645Z,2200.00
2018-07-28T07:32:08.692Z,2128.00
2018-07-28T07:33:08.635Z,2028.00
2018-07-28T07:34:08.632Z,1912.00
2018-07-28T07:35:08.613Z,1756.00
2018-07-28T07:36:08.675Z,1576.00
2018-07-28T07:37:08.654Z,1432.00
2018-07-28T07:38:09.022Z,1348.00
2018-07-28T07:39:08.570Z,1244.00
2018-07-28T07:40:08.554Z,1200.00
2018-07-28T07:41:08.552Z,1184.00
2018-07-28T07:42:08.633Z,1156.00
2018-07-28T07:43:08.529Z,1132.00
2018-07-28T07:44:08.516Z,1092.00
2018-07-28T07:45:08.513Z,1056.00
2018-07-28T07:46:08.494Z,1036.00
2018-07-28T07:47:08.608Z,1020.00
2018-07-28T07:48:08.471Z,1036.00
2018-07-28T07:49:08.461Z,1080.00
2018-07-28T07:50:08.459Z,1204.00
2018-07-28T07:51:08.441Z,1364.00
2018-07-28T07:52:08.494Z,1528.00
2018-07-28T07:53:08.426Z,1628.00
2018-07-28T07:54:08.404Z,1620.00
2018-07-28T07:55:08.402Z,1620.00
2018-07-28T07:56:08.390Z,1776.00
2018-07-28T07:57:08.464Z,1936.00
2018-07-28T07:58:08.367Z,2192.00
2018-07-28T07:59:08.361Z,2360.00
2018-07-28T08:00:08.343Z,2548.00
2018-07-28T08:01:08.338Z,2732.00
2018-07-28T08:02:08.394Z,2868.00
2018-07-28T08:03:08.336Z,3004.00
2018-07-28T08:04:08.310Z,3092.00
2018-07-28T08:05:08.300Z,3148.00
2018-07-28T08:06:08.294Z,3172.00
2018-07-28T08:07:08.338Z,3168.00
2018-07-28T08:08:08.263Z,3196.00
2018-07-28T08:09:08.252Z,3232.00
2018-07-28T08:10:08.254Z,3264.00
2018-07-28T08:11:08.239Z,3268.00
2018-07-28T08:12:08.286Z,3264.00
2018-07-28T08:13:08.211Z,3264.00
2018-07-28T08:14:08.197Z,3280.00
2018-07-28T08:15:08.186Z,3308.00
2018-07-28T08:16:08.180Z,3296.00
2018-07-28T08:17:08.213Z,3340.00
2018-07-28T08:18:08.147Z,3372.00
2018-07-28T08:19:08.154Z,3416.00
2018-07-28T08:20:08.144Z,3468.00
2018-07-28T08:21:08.243Z,3492.00
2018-07-28T08:22:08.174Z,3528.00
2018-07-28T08:23:08.095Z,3576.00
2018-07-28T08:24:08.087Z,3616.00
2018-07-28T08:25:08.080Z,3644.00
2018-07-28T08:26:08.098Z,3668.00
2018-07-28T08:27:08.126Z,3708.00
2018-07-28T08:28:08.048Z,3748.00
2018-07-28T08:29:08.042Z,3772.00
2018-07-28T08:30:08.017Z,3720.00
2018-07-28T08:31:08.011Z,3680.00
2018-07-28T08:32:08.073Z,3784.00
2018-07-28T08:33:08.005Z,3944.00
2018-07-28T08:34:08.023Z,3996.00
2018-07-28T08:35:07.962Z,4068.00
2018-07-28T08:36:07.960Z,4108.00
2018-07-28T08:37:08.020Z,4032.00
2018-07-28T08:38:07.943Z,3996.00
2018-07-28T08:39:07.929Z,3936.00
2018-07-28T08:40:07.983Z,3884.00
2018-07-28T08:41:07.903Z,3848.00
2018-07-28T08:42:07.973Z,3856.00
2018-07-28T08:43:07.884Z,3724.00
2018-07-28T08:44:07.873Z,3516.00
2018-07-28T08:45:07.857Z,3336.00
2018-07-28T08:46:07.838Z,3152.00
2018-07-28T08:47:07.842Z,3008.00
2018-07-28T08:48:07.894Z,3000.00
2018-07-28T08:49:07.960Z,3112.00
2018-07-28T08:50:07.803Z,3252.00
2018-07-28T08:51:07.798Z,3352.00
2018-07-28T08:52:07.780Z,3500.00
2018-07-28T08:53:07.875Z,3504.00
2018-07-28T08:54:07.761Z,3520.00
2018-07-28T08:55:07.753Z,3472.00
2018-07-28T08:56:07.738Z,3356.00
2018-07-28T08:57:07.734Z,3224.00
2018-07-28T08:58:07.791Z,3180.00
2018-07-28T08:59:07.704Z,3196.00
2018-07-28T09:00:07.696Z,3296.00
2018-07-28T09:01:07.685Z,3480.00
2018-07-28T09:02:07.673Z,3636.00
2018-07-28T09:03:07.725Z,3948.00
2018-07-28T09:04:07.650Z,3928.00
2018-07-28T09:05:07.644Z,3880.00
2018-07-28T09:06:07.651Z,3864.00
2018-07-28T09:07:07.618Z,3928.00
2018-07-28T09:08:07.752Z,4144.00
2018-07-28T09:09:07.602Z,4312.00
2018-07-28T09:10:07.615Z,4480.00
2018-07-28T09:11:07.607Z,4476.00
2018-07-28T09:12:07.568Z,4420.00
2018-07-28T09:13:07.619Z,4508.00
2018-07-28T09:14:07.556Z,4588.00
2018-07-28T09:15:07.543Z,4644.00
2018-07-28T09:16:07.515Z,4392.00
2018-07-28T09:17:07.521Z,4444.00
2018-07-28T09:18:07.581Z,4400.00
2018-07-28T09:19:07.488Z,4060.00
2018-07-28T09:20:07.480Z,3892.00
2018-07-28T09:21:07.470Z,3908.00
2018-07-28T09:22:07.458Z,3896.00
2018-07-28T09:23:07.567Z,3700.00
2018-07-28T09:24:07.435Z,3604.00
2018-07-28T09:25:07.421Z,3688.00
2018-07-28T09:26:07.430Z,3804.00
2018-07-28T09:27:07.409Z,3860.00
2018-07-28T09:28:07.458Z,3976.00
2018-07-28T09:29:07.382Z,4164.00
2018-07-28T09:30:07.372Z,4160.00
2018-07-28T09:31:07.360Z,4296.00
2018-07-28T09:32:07.471Z,4460.00
2018-07-28T09:33:07.401Z,4248.00
2018-07-28T09:34:07.336Z,4132.00
2018-07-28T09:35:07.321Z,4132.00
2018-07-28T09:36:07.309Z,4264.00
2018-07-28T09:37:07.299Z,4280.00
2018-07-28T09:38:07.461Z,4292.00
2018-07-28T09:39:07.287Z,4328.00
2018-07-28T09:40:07.273Z,4324.00
2018-07-28T09:41:07.256Z,4416.00
2018-07-28T09:42:07.297Z,4596.00
2018-07-28T09:43:07.313Z,4604.00
2018-07-28T09:44:07.232Z,4528.00
2018-07-28T09:45:07.241Z,4460.00
2018-07-28T09:46:07.206Z,4452.00
2018-07-28T09:47:07.219Z,4616.00
2018-07-28T09:48:07.241Z,4776.00
2018-07-28T09:49:07.179Z,4936.00
2018-07-28T09:50:07.163Z,4924.00
2018-07-28T09:51:07.155Z,4844.00
2018-07-28T09:52:07.146Z,4392.00
2018-07-28T09:53:07.195Z,4960.00
2018-07-28T09:54:07.121Z,5252.00
2018-07-28T09:55:07.118Z,5432.00
2018-07-28T09:56:07.122Z,5460.00
2018-07-28T09:57:07.102Z,5192.00
2018-07-28T09:58:07.162Z,5092.00
2018-07-28T09:59:07.072Z,5144.00
2018-07-28T10:00:07.053Z,5216.00
2018-07-28T10:01:07.056Z,5288.00
2018-07-28T10:02:07.037Z,5448.00
2018-07-28T10:03:07.099Z,5632.00
2018-07-28T10:04:07.012Z,5680.00
2018-07-28T10:05:07.000Z,5608.00
2018-07-28T10:06:07.002Z,5440.00
2018-07-28T10:07:06.988Z,5280.00
2018-07-28T10:08:07.072Z,5120.00
2018-07-28T10:09:07.093Z,4872.00
2018-07-28T10:10:06.953Z,4764.00
2018-07-28T10:11:06.943Z,4760.00
2018-07-28T10:12:06.931Z,4752.00
2018-07-28T10:13:07.000Z,4700.00
2018-07-28T10:14:06.913Z,4520.00
2018-07-28T10:15:06.898Z,4480.00
2018-07-28T10:16:06.895Z,4236.00
2018-07-28T10:17:06.894Z,4176.00
2018-07-28T10:18:06.938Z,4108.00
2018-07-28T10:19:06.860Z,4024.00
2018-07-28T10:20:06.909Z,3920.00
2018-07-28T10:21:06.863Z,3692.00
2018-07-28T10:22:06.821Z,3488.00
2018-07-28T10:23:06.897Z,3196.00
2018-07-28T10:24:06.807Z,3108.00
2018-07-28T10:25:06.796Z,3124.00
2018-07-28T10:26:06.785Z,3100.00
2018-07-28T10:27:06.778Z,3144.00
2018-07-28T10:28:06.766Z,3272.00
2018-07-28T10:29:06.823Z,3268.00
2018-07-28T10:30:06.790Z,3264.00
2018-07-28T10:31:06.744Z,3232.00
2018-07-28T10:32:06.721Z,3312.00
2018-07-28T10:33:06.711Z,3324.00
2018-07-28T10:34:06.765Z,3732.00
2018-07-28T10:35:06.689Z,3620.00
2018-07-28T10:36:06.681Z,3312.00
2018-07-28T10:37:06.667Z,3708.00
2018-07-28T10:38:06.663Z,3644.00
2018-07-28T10:39:06.741Z,3556.00
2018-07-28T10:40:06.644Z,3664.00
2018-07-28T10:41:06.626Z,3780.00
2018-07-28T10:42:06.620Z,4060.00
2018-07-28T10:43:06.611Z,4176.00
2018-07-28T10:44:06.654Z,4540.00
2018-07-28T10:45:06.585Z,4868.00
2018-07-28T10:46:06.579Z,4920.00
2018-07-28T10:47:06.577Z,5208.00
2018-07-28T10:48:06.560Z,5432.00
2018-07-28T10:49:06.620Z,5480.00
2018-07-28T10:50:06.536Z,5480.00
2018-07-28T10:51:06.522Z,5640.00
2018-07-28T10:52:06.516Z,5088.00
2018-07-28T10:53:06.499Z,4864.00
2018-07-28T10:54:06.563Z,4916.00
2018-07-28T10:55:06.482Z,5020.00
2018-07-28T10:56:06.467Z,5032.00
2018-07-28T10:57:06.452Z,4740.00
2018-07-28T10:58:06.440Z,3836.00
2018-07-28T10:59:06.500Z,3576.00
2018-07-28T11:00:06.474Z,3504.00
2018-07-28T11:01:06.421Z,3468.00
2018-07-28T11:02:06.399Z,3508.00
2018-07-28T11:03:06.390Z,3500.00
2018-07-28T11:04:06.437Z,3584.00
2018-07-28T11:05:06.371Z,3676.00
2018-07-28T11:06:06.368Z,3788.00
2018-07-28T11:07:06.358Z,3976.00
2018-07-28T11:08:06.345Z,4112.00
2018-07-28T11:09:06.425Z,4180.00
2018-07-28T11:10:06.343Z,4156.00
2018-07-28T11:11:06.311Z,4144.00
2018-07-28T11:12:06.300Z,4072.00
2018-07-28T11:13:06.288Z,4004.00
2018-07-28T11:14:06.340Z,3948.00
2018-07-28T11:15:06.264Z,4032.00
2018-07-28T11:16:06.256Z,4176.00
2018-07-28T11:17:06.247Z,4308.00
2018-07-28T11:18:06.238Z,4356.00
2018-07-28T11:19:06.345Z,4136.00
2018-07-28T11:20:06.215Z,3916.00
2018-07-28T11:21:06.200Z,3864.00
2018-07-28T11:22:06.191Z,3816.00
2018-07-28T11:23:06.190Z,3784.00
2018-07-28T11:24:06.228Z,3616.00
2018-07-28T11:25:06.157Z,3352.00
2018-07-28T11:26:06.271Z,2956.00
2018-07-28T11:27:06.139Z,2484.00
2018-07-28T11:28:06.127Z,2236.00
2018-07-28T11:29:06.178Z,2164.00
2018-07-28T11:30:06.106Z,2188.00
2018-07-28T11:31:06.096Z,2352.00
2018-07-28T11:32:06.087Z,2660.00
2018-07-28T11:33:06.075Z,3052.00
2018-07-28T11:34:06.131Z,3260.00
2018-07-28T11:35:06.060Z,3476.00
2018-07-28T11:36:06.045Z,3472.00
2018-07-28T11:37:06.030Z,3712.00
2018-07-28T11:38:06.024Z,4136.00
2018-07-28T11:39:06.081Z,4472.00
2018-07-28T11:40:06.000Z,4176.00
2018-07-28T11:41:05.992Z,3984.00
2018-07-28T11:42:05.978Z,3932.00
2018-07-28T11:43:05.968Z,3204.00
2018-07-28T11:44:06.021Z,3004.00
2018-07-28T11:45:05.944Z,3356.00
2018-07-28T11:46:05.936Z,4152.00
2018-07-28T11:47:05.925Z,4792.00
2018-07-28T11:48:05.918Z,4960.00
2018-07-28T11:49:05.903Z,5104.00
2018-07-28T11:50:05.958Z,5276.00
2018-07-28T11:51:05.881Z,5512.00
2018-07-28T11:52:05.876Z,5772.00
2018-07-28T11:53:06.687Z,5876.00
2018-07-28T11:54:05.851Z,5832.00
2018-07-28T11:55:05.896Z,5916.00
2018-07-28T11:56:05.825Z,5876.00
2018-07-28T11:57:05.815Z,6068.00
2018-07-28T11:58:05.824Z,5676.00
2018-07-28T11:59:05.795Z,4684.00
2018-07-28T12:00:05.846Z,4976.00
2018-07-28T12:01:05.772Z,3544.00
2018-07-28T12:02:05.759Z,4200.00
2018-07-28T12:03:05.755Z,3628.00
2018-07-28T12:04:05.738Z,3848.00
2018-07-28T12:05:05.790Z,4232.00
2018-07-28T12:06:05.721Z,4780.00
2018-07-28T12:07:05.707Z,5812.00
2018-07-28T12:08:05.702Z,5732.00
2018-07-28T12:09:05.685Z,5764.00
2018-07-28T12:10:05.738Z,5932.00
2018-07-28T12:11:05.665Z,6204.00
2018-07-28T12:12:05.657Z,6288.00
2018-07-28T12:13:05.644Z,6368.00
2018-07-28T12:14:05.638Z,6400.00
2018-07-28T12:15:05.685Z,6504.00
2018-07-28T12:16:05.616Z,6484.00
2018-07-28T12:17:05.602Z,6652.00
2018-07-28T12:18:05.603Z,6640.00
2018-07-28T12:19:08.180Z,6076.00
2018-07-28T12:20:05.630Z,5848.00
2018-07-28T12:21:05.563Z,5368.00
2018-07-28T12:22:05.553Z,6112.00
2018-07-28T12:23:05.541Z,5076.00
2018-07-28T12:24:05.614Z,4020.00
2018-07-28T12:25:05.586Z,3856.00
2018-07-28T12:26:05.503Z,3672.00
2018-07-28T12:27:05.492Z,3532.00
2018-07-28T12:28:05.484Z,3716.00
2018-07-28T12:29:05.474Z,3880.00
2018-07-28T12:30:05.526Z,4116.00